Time;durP1;ratioP1;P1;durP2;ratioP2;P2;SDS_P1;SDS_P2;PMS_P1;PMS_P2;Temp;Humidity;BMP_temperature;BMP_pressure;BME280_temperature;BME280_humidity;BME280_pressure;Samples;Min_cycle;Max_cycle;Signal;HPM_P1;HPM_P2
2022/01/22 00:01:13;;;;;;;0.68;0.68;;;0.40;99.90;;;;;;5082177;28;20679;-60
2022/01/22 00:03:52;;;;;;;0.70;0.70;;;0.50;99.90;;;;;;5083112;28;21059;-59
2022/01/22 00:06:33;;;;;;;0.90;0.90;;;0.50;99.90;;;;;;5083673;27;20547;-59
2022/01/22 00:09:12;;;;;;;1.98;0.60;;;0.50;99.90;;;;;;5102346;27;20545;-60
2022/01/22 00:11:53;;;;;;;0.80;0.80;;;0.50;99.90;;;;;;5130222;27;20587;-60
2022/01/22 00:14:34;;;;;;;0.60;0.60;;;0.50;99.90;;;;;;5074337;28;21338;-61
2022/01/22 00:17:25;;;;;;;0.68;0.68;;;0.50;99.90;;;;;;5139899;27;21352;-58
2022/01/22 00:20:06;;;;;;;0.73;0.73;;;0.60;99.90;;;;;;5104290;27;21151;-59
2022/01/22 00:22:46;;;;;;;0.50;0.50;;;0.60;99.90;;;;;;5121215;27;21097;-58
2022/01/22 00:25:26;;;;;;;0.50;0.50;;;0.60;99.90;;;;;;5142574;27;21194;-59
2022/01/22 00:28:06;;;;;;;0.60;0.57;;;0.60;99.90;;;;;;5083053;28;20680;-61
2022/01/22 00:30:46;;;;;;;0.50;0.50;;;0.60;99.90;;;;;;5104497;27;20587;-59
2022/01/22 00:33:25;;;;;;;0.73;0.73;;;0.70;99.90;;;;;;5084410;28;20660;-59
2022/01/22 00:36:05;;;;;;;0.40;0.40;;;0.70;99.90;;;;;;5084617;28;21134;-61
2022/01/22 00:38:45;;;;;;;0.50;0.50;;;0.70;99.90;;;;;;5145559;27;20542;-60
2022/01/22 00:41:25;;;;;;;0.60;0.60;;;0.70;99.90;;;;;;5095302;27;20605;-60
2022/01/22 00:44:05;;;;;;;0.40;0.40;;;0.70;99.90;;;;;;5069914;27;20571;-60
2022/01/22 00:46:45;;;;;;;0.47;0.47;;;0.70;99.90;;;;;;5103730;27;20678;-60
2022/01/22 00:49:24;;;;;;;0.40;0.40;;;0.70;99.90;;;;;;5117931;27;20991;-60
2022/01/22 00:52:05;;;;;;;0.40;0.40;;;0.80;99.90;;;;;;5068505;27;21027;-59
2022/01/22 00:54:44;;;;;;;0.60;0.60;;;0.80;99.90;;;;;;5072322;27;21151;-61
2022/01/22 00:57:24;;;;;;;0.40;0.40;;;0.80;99.90;;;;;;5103736;27;20979;-59
2022/01/22 01:00:07;;;;;;;0.45;0.45;;;0.80;99.90;;;;;;5104585;27;20530;-60
2022/01/22 01:02:47;;;;;;;0.50;0.50;;;0.90;99.90;;;;;;5101357;27;20693;-59
2022/01/22 01:05:27;;;;;;;0.40;0.40;;;0.80;99.90;;;;;;5128386;27;20680;-59
2022/01/22 01:08:07;;;;;;;0.32;0.32;;;0.90;99.90;;;;;;5083207;28;21020;-60
2022/01/22 01:10:48;;;;;;;0.50;0.50;;;0.90;99.90;;;;;;5082476;28;20676;-59
2022/01/22 01:13:31;;;;;;;0.40;0.40;;;0.90;99.90;;;;;;5084858;28;20667;-58
2022/01/22 01:16:32;;;;;;;0.30;0.30;;;0.90;99.90;;;;;;5119364;27;20579;-59
2022/01/22 01:34:03;;;;;;;0.70;0.70;;;1.00;99.90;;;;;;5120722;27;20567;-61
2022/01/22 01:36:44;;;;;;;0.70;0.70;;;1.10;99.90;;;;;;5123879;27;20683;-60
2022/01/22 01:39:27;;;;;;;0.55;0.55;;;1.00;99.90;;;;;;5083490;27;20539;-59
2022/01/22 01:42:12;;;;;;;0.75;0.75;;;1.00;99.90;;;;;;5083989;27;20906;-60
2022/01/22 01:44:52;;;;;;;0.70;0.70;;;1.00;99.90;;;;;;5104923;27;20673;-62
2022/01/22 01:47:33;;;;;;;0.50;0.50;;;1.00;99.90;;;;;;5084036;28;20675;-59
2022/01/22 01:50:12;;;;;;;0.57;0.57;;;1.00;99.90;;;;;;5104614;27;20564;-59
2022/01/22 01:53:05;;;;;;;0.65;0.65;;;1.00;99.90;;;;;;5079057;28;20696;-59
2022/01/22 01:56:01;;;;;;;0.80;0.80;;;1.00;99.90;;;;;;5063289;27;21290;-59
2022/01/22 01:58:40;;;;;;;0.65;0.65;;;1.00;99.90;;;;;;5116414;27;20564;-60
2022/01/22 02:01:20;;;;;;;0.63;0.63;;;1.00;99.90;;;;;;5146206;27;20550;-59
2022/01/22 02:04:00;;;;;;;0.75;0.75;;;1.00;99.90;;;;;;5145696;27;20615;-60
2022/01/22 02:06:40;;;;;;;0.50;0.50;;;1.00;99.90;;;;;;5064956;27;20690;-59
2022/01/22 02:09:19;;;;;;;0.70;0.70;;;1.00;99.90;;;;;;5145371;27;20573;-58
2022/01/22 02:12:04;;;;;;;0.73;0.73;;;1.00;99.90;;;;;;5084037;28;20711;-59
2022/01/22 02:23:50;;;;;;;0.70;0.70;;;1.00;99.90;;;;;;5118115;27;21048;-62
2022/01/22 02:26:30;;;;;;;0.90;0.90;;;1.00;99.90;;;;;;5084030;28;20679;-59
2022/01/22 02:29:10;;;;;;;0.90;0.90;;;1.00;99.90;;;;;;5083839;28;20676;-59
2022/01/22 02:32:02;;;;;;;0.70;0.70;;;1.10;99.90;;;;;;5088234;27;20559;-59
2022/01/22 02:34:52;;;;;;;0.70;0.70;;;1.10;99.90;;;;;;5104612;27;20677;-59
2022/01/22 02:37:36;;;;;;;0.98;0.98;;;1.10;99.90;;;;;;5103895;27;21015;-60
2022/01/22 02:40:23;;;;;;;0.80;0.80;;;1.10;99.90;;;;;;5084215;27;21095;-58
2022/01/22 02:43:03;;;;;;;0.70;0.70;;;1.10;99.90;;;;;;5105190;27;20534;-59
2022/01/22 02:45:45;;;;;;;0.80;0.80;;;1.10;99.90;;;;;;5084657;27;21068;-59
2022/01/22 02:48:24;;;;;;;0.90;0.90;;;1.10;99.90;;;;;;5145453;27;20657;-61
2022/01/22 02:51:04;;;;;;;0.80;0.80;;;1.10;99.90;;;;;;5099152;27;20879;-61
2022/01/22 02:53:44;;;;;;;0.77;0.77;;;1.10;99.90;;;;;;5101294;27;20545;-58
2022/01/22 02:56:25;;;;;;;1.10;1.10;;;1.10;99.90;;;;;;5104847;27;20717;-59
2022/01/22 02:59:03;;;;;;;1.00;1.00;;;1.10;99.90;;;;;;5103223;27;20669;-59
2022/01/22 03:01:45;;;;;;;0.88;0.88;;;1.10;99.90;;;;;;5084657;28;20676;-59
2022/01/22 03:04:25;;;;;;;1.25;1.13;;;1.10;99.90;;;;;;5084587;27;21098;-61
2022/01/22 03:07:05;;;;;;;0.80;0.80;;;1.10;99.90;;;;;;5146123;27;20539;-60
2022/01/22 03:09:47;;;;;;;0.95;0.95;;;1.10;99.90;;;;;;5084706;27;20675;-59
2022/01/22 03:12:49;;;;;;;1.00;1.00;;;1.10;99.90;;;;;;5084806;28;20664;-59
2022/01/22 03:15:37;;;;;;;0.80;0.80;;;1.10;99.90;;;;;;5082940;27;20547;-60
2022/01/22 03:18:20;;;;;;;1.08;0.90;;;1.10;99.90;;;;;;5084266;27;20945;-58
2022/01/22 03:21:15;;;;;;;1.05;1.05;;;1.10;99.90;;;;;;5144810;27;20657;-59
2022/01/22 03:29:50;;;;;;;0.70;0.70;;;1.10;99.90;;;;;;5103262;27;20559;-61
2022/01/22 03:32:35;;;;;;;0.90;0.90;;;1.10;99.90;;;;;;5125798;27;20535;-61
2022/01/22 03:35:25;;;;;;;1.08;0.98;;;1.10;99.90;;;;;;5103990;27;20677;-59
2022/01/22 03:38:05;;;;;;;0.82;0.82;;;1.10;99.90;;;;;;5061100;28;20686;-59
2022/01/22 03:40:48;;;;;;;0.90;0.90;;;1.10;99.90;;;;;;5103711;27;20677;-59
2022/01/22 03:43:28;;;;;;;0.70;0.70;;;1.10;99.90;;;;;;5083919;28;20935;-61
2022/01/22 03:46:08;;;;;;;0.93;0.93;;;1.10;99.90;;;;;;5085333;27;20532;-60
2022/01/22 03:48:48;;;;;;;1.00;1.00;;;1.10;99.90;;;;;;5084050;28;20539;-59
2022/01/22 03:51:27;;;;;;;0.90;0.90;;;1.10;99.90;;;;;;5084404;28;20655;-59
2022/01/22 03:54:07;;;;;;;1.13;1.13;;;1.10;99.90;;;;;;5104670;27;20681;-59
2022/01/22 03:56:51;;;;;;;0.90;0.90;;;1.10;99.90;;;;;;5062749;27;21101;-60
2022/01/22 03:59:31;;;;;;;0.90;0.90;;;1.10;99.90;;;;;;5143038;27;20534;-60
2022/01/22 04:05:08;;;;;;;0.80;0.80;;;1.10;99.90;;;;;;5077744;27;21113;-59
2022/01/22 04:08:09;;;;;;;0.80;0.80;;;1.10;99.90;;;;;;5091932;27;20989;-59
2022/01/22 04:10:49;;;;;;;1.20;1.20;;;1.10;99.90;;;;;;5103850;27;20541;-62
2022/01/22 04:13:33;;;;;;;1.15;1.15;;;1.10;99.90;;;;;;5082581;27;21016;-59
2022/01/22 04:16:14;;;;;;;1.00;1.00;;;1.10;99.90;;;;;;5084195;28;21009;-59
2022/01/22 04:24:54;;;;;;;1.23;1.23;;;1.20;99.90;;;;;;5092117;27;21085;-58
2022/01/22 04:27:33;;;;;;;1.27;1.17;;;1.20;99.90;;;;;;5084686;28;20579;-58
2022/01/22 04:30:13;;;;;;;1.20;1.20;;;1.20;99.90;;;;;;5084796;27;20557;-61
2022/01/22 04:32:53;;;;;;;1.08;1.08;;;1.20;99.90;;;;;;5105431;27;21018;-59
2022/01/22 04:35:33;;;;;;;1.27;1.20;;;1.20;99.90;;;;;;5084324;27;21024;-58
2022/01/22 04:38:12;;;;;;;0.90;0.88;;;1.20;99.90;;;;;;5084008;28;20683;-59
2022/01/22 04:40:52;;;;;;;1.00;1.00;;;1.20;99.90;;;;;;5104191;27;20693;-59
2022/01/22 04:43:34;;;;;;;1.10;1.10;;;1.30;99.90;;;;;;5084746;28;20539;-59
2022/01/22 04:46:20;;;;;;;1.10;1.10;;;1.30;99.90;;;;;;5084876;27;20547;-60
2022/01/22 04:49:09;;;;;;;0.90;0.90;;;1.30;99.90;;;;;;5083896;28;21399;-59
2022/01/22 04:54:59;;;;;;;0.93;0.93;;;1.30;99.90;;;;;;5084317;28;20672;-59
2022/01/22 04:57:40;;;;;;;0.90;0.90;;;1.30;99.90;;;;;;5084491;28;20755;-59
2022/01/22 05:00:19;;;;;;;0.70;0.70;;;1.20;99.90;;;;;;5084392;27;20543;-60
2022/01/22 05:02:59;;;;;;;0.70;0.70;;;1.20;99.90;;;;;;5084719;27;20535;-60
2022/01/22 05:05:39;;;;;;;0.80;0.80;;;1.30;99.90;;;;;;5124951;27;20683;-63
2022/01/22 05:08:18;;;;;;;0.85;0.85;;;1.30;99.90;;;;;;5104326;27;20677;-60
2022/01/22 05:10:58;;;;;;;0.70;0.70;;;1.30;99.90;;;;;;5145624;27;20587;-59
2022/01/22 05:13:38;;;;;;;0.70;0.70;;;1.30;99.90;;;;;;5146060;27;20673;-59
2022/01/22 05:16:18;;;;;;;0.63;0.63;;;1.30;99.90;;;;;;5084856;28;20676;-59
2022/01/22 05:19:02;;;;;;;0.93;0.93;;;1.30;99.90;;;;;;5145585;27;20657;-59
2022/01/22 05:21:43;;;;;;;0.45;0.45;;;1.30;99.90;;;;;;5145805;27;20527;-58
2022/01/22 05:24:27;;;;;;;0.57;0.57;;;1.30;99.90;;;;;;5084402;27;20556;-60
2022/01/22 05:27:35;;;;;;;0.60;0.60;;;1.30;99.90;;;;;;5083945;27;20531;-58
2022/01/22 05:30:37;;;;;;;0.75;0.70;;;1.30;99.90;;;;;;5104785;27;20689;-59
2022/01/22 05:33:31;;;;;;;0.75;0.75;;;1.30;99.90;;;;;;5085309;27;20543;-60
2022/01/22 05:39:10;;;;;;;0.50;0.50;;;1.30;99.90;;;;;;5083864;27;21056;-59
2022/01/22 05:41:49;;;;;;;0.50;0.50;;;1.30;99.90;;;;;;5083805;27;20591;-59
2022/01/22 05:44:31;;;;;;;0.65;0.65;;;1.30;99.90;;;;;;5125770;27;20540;-60
2022/01/22 05:47:12;;;;;;;0.38;0.38;;;1.30;99.90;;;;;;5084510;28;20668;-59
2022/01/22 05:49:53;;;;;;;0.50;0.50;;;1.30;99.90;;;;;;5104914;27;20545;-61
2022/01/22 05:52:38;;;;;;;0.52;0.52;;;1.30;99.90;;;;;;5104823;27;20545;-60
2022/01/22 05:59:35;;;;;;;0.90;0.90;;;1.30;99.90;;;;;;5125482;27;20543;-60
2022/01/22 06:01:29;;;;;;;0.50;0.50;;;1.30;99.90;;;;;;5084082;28;21188;-59
2022/01/22 06:04:09;;;;;;;0.40;0.40;;;1.30;99.90;;;;;;5125252;27;20552;-58
2022/01/22 06:06:48;;;;;;;0.43;0.43;;;1.30;99.90;;;;;;5084289;28;20699;-59
2022/01/22 06:09:31;;;;;;;0.50;0.50;;;1.30;99.90;;;;;;5146093;27;21206;-59
2022/01/22 06:12:27;;;;;;;0.70;0.70;;;1.30;99.90;;;;;;5125535;27;20716;-59
2022/01/22 06:15:08;;;;;;;0.60;0.60;;;1.30;99.90;;;;;;5105142;27;20677;-59
2022/01/22 06:17:47;;;;;;;0.47;0.47;;;1.30;99.90;;;;;;5084174;27;20671;-59
2022/01/22 06:20:27;;;;;;;0.52;0.52;;;1.30;99.90;;;;;;5084277;27;20544;-59
2022/01/22 06:23:07;;;;;;;0.38;0.38;;;1.30;99.90;;;;;;5105163;27;20662;-59
2022/01/22 06:25:46;;;;;;;0.40;0.40;;;1.30;99.90;;;;;;5083926;28;20692;-61
2022/01/22 06:28:26;;;;;;;0.50;0.50;;;1.30;99.90;;;;;;5145209;27;20697;-60
2022/01/22 06:31:07;;;;;;;0.43;0.43;;;1.30;99.90;;;;;;5083918;28;21195;-59
2022/01/22 06:33:48;;;;;;;0.50;0.50;;;1.20;99.90;;;;;;5104898;27;20542;-59
2022/01/22 06:36:28;;;;;;;1.00;0.50;;;1.20;99.90;;;;;;5125377;27;20675;-59
2022/01/22 06:39:12;;;;;;;0.70;0.70;;;1.20;99.90;;;;;;5104432;27;21198;-59
2022/01/22 06:41:53;;;;;;;0.40;0.40;;;1.20;99.90;;;;;;5084618;28;20593;-60
2022/01/22 06:44:34;;;;;;;0.75;0.40;;;1.20;99.90;;;;;;5104996;27;20534;-60
2022/01/22 06:47:15;;;;;;;0.98;0.73;;;1.20;99.90;;;;;;5141167;27;20696;-62
2022/01/22 06:49:55;;;;;;;0.70;0.70;;;1.20;99.90;;;;;;5082035;28;20703;-60
2022/01/22 06:52:34;;;;;;;2.05;1.90;;;1.30;99.90;;;;;;5084397;28;21027;-59
2022/01/22 06:55:17;;;;;;;1.08;1.08;;;1.30;99.90;;;;;;5104708;27;20681;-60
2022/01/22 06:57:57;;;;;;;0.85;0.85;;;1.30;99.90;;;;;;5082601;28;21172;-59
2022/01/22 07:00:37;;;;;;;0.60;0.43;;;1.30;99.90;;;;;;5103207;27;20670;-59
2022/01/22 07:03:17;;;;;;;0.68;0.68;;;1.30;99.90;;;;;;5104249;27;20537;-59
2022/01/22 07:05:57;;;;;;;0.50;0.50;;;1.40;99.90;;;;;;5084154;28;20672;-60
2022/01/22 07:08:36;;;;;;;0.70;0.70;;;1.40;99.90;;;;;;5103741;27;20682;-59
2022/01/22 07:11:17;;;;;;;0.50;0.50;;;1.50;99.90;;;;;;5084205;27;20908;-61
2022/01/22 07:13:56;;;;;;;0.80;0.80;;;1.50;99.90;;;;;;5084130;27;20563;-61
2022/01/22 07:16:36;;;;;;;0.82;0.82;;;1.60;99.90;;;;;;5084909;28;20660;-59
2022/01/22 07:19:19;;;;;;;0.63;0.63;;;1.60;99.90;;;;;;5103948;27;20564;-59
2022/01/22 07:22:04;;;;;;;0.60;0.60;;;1.70;99.90;;;;;;5146083;27;20662;-61
2022/01/22 07:24:43;;;;;;;0.75;0.75;;;1.70;99.90;;;;;;5084618;28;20691;-58
2022/01/22 07:27:23;;;;;;;0.70;0.70;;;1.80;99.90;;;;;;5084446;27;21030;-58
2022/01/22 07:30:04;;;;;;;0.73;0.73;;;1.80;99.90;;;;;;5084567;28;20651;-61
2022/01/22 07:32:45;;;;;;;0.80;0.80;;;1.90;99.90;;;;;;5105126;27;20547;-59
2022/01/22 07:35:24;;;;;;;0.70;0.70;;;1.90;99.90;;;;;;5104850;27;20549;-60
2022/01/22 07:38:04;;;;;;;0.73;0.73;;;1.90;99.90;;;;;;5084043;27;21084;-59
2022/01/22 07:40:44;;;;;;;1.00;1.00;;;1.90;99.90;;;;;;5099965;27;21029;-59
2022/01/22 07:43:24;;;;;;;0.80;0.80;;;2.00;99.90;;;;;;5084363;28;20679;-59
2022/01/22 07:46:04;;;;;;;0.88;0.88;;;2.20;99.90;;;;;;5083359;27;20539;-60
2022/01/22 07:48:43;;;;;;;0.80;0.80;;;2.30;99.90;;;;;;5123136;27;21009;-59
2022/01/22 07:51:23;;;;;;;0.90;0.90;;;2.30;99.90;;;;;;5104268;27;20677;-58
2022/01/22 07:54:04;;;;;;;0.82;0.82;;;2.30;99.90;;;;;;5076655;27;20584;-59
2022/01/22 07:56:43;;;;;;;0.82;0.82;;;2.40;99.90;;;;;;5144531;27;20681;-60
2022/01/22 07:59:23;;;;;;;0.95;0.95;;;2.50;99.90;;;;;;5074772;28;20666;-59
2022/01/22 08:02:05;;;;;;;0.98;0.98;;;2.60;99.90;;;;;;5104790;27;21070;-59
2022/01/22 08:04:44;;;;;;;0.88;0.88;;;2.70;99.90;;;;;;5100700;27;20612;-60
2022/01/22 08:07:24;;;;;;;1.00;1.00;;;2.70;99.90;;;;;;5083608;27;20568;-59
2022/01/22 08:10:08;;;;;;;0.95;0.95;;;2.80;99.90;;;;;;5103744;27;20951;-59
2022/01/22 08:12:50;;;;;;;0.90;0.90;;;2.80;99.90;;;;;;5083427;28;20668;-60
2022/01/22 08:15:30;;;;;;;0.98;0.98;;;2.80;99.90;;;;;;5131945;27;20980;-60
2022/01/22 08:18:10;;;;;;;1.27;1.08;;;2.90;99.90;;;;;;5068773;28;21606;-61
2022/01/22 08:20:49;;;;;;;0.93;0.93;;;2.90;99.90;;;;;;5081623;28;20663;-59
2022/01/22 08:23:32;;;;;;;0.98;0.98;;;2.90;99.90;;;;;;5082821;27;20556;-59
2022/01/22 08:26:16;;;;;;;0.80;0.80;;;2.90;99.90;;;;;;5084353;28;21025;-60
2022/01/22 08:28:57;;;;;;;0.60;0.60;;;2.90;99.90;;;;;;5076275;27;21155;-60
2022/01/22 08:31:49;;;;;;;0.70;0.70;;;2.90;99.90;;;;;;5077922;27;20843;-59
2022/01/22 08:37:27;;;;;;;0.80;0.80;;;3.00;99.90;;;;;;5083049;27;20551;-59
2022/01/22 08:40:10;;;;;;;1.00;1.00;;;3.10;99.90;;;;;;5141690;27;20550;-60
2022/01/22 08:42:50;;;;;;;0.70;0.70;;;3.30;99.90;;;;;;5103202;27;21246;-58
2022/01/22 08:45:29;;;;;;;0.77;0.77;;;3.40;99.90;;;;;;5083933;27;20551;-60
2022/01/22 08:48:09;;;;;;;2.00;0.82;;;3.30;99.90;;;;;;5082579;27;20543;-59
2022/01/22 08:50:49;;;;;;;0.90;0.90;;;3.30;99.90;;;;;;5142653;27;21190;-59
2022/01/22 08:53:29;;;;;;;1.42;0.88;;;3.30;99.90;;;;;;5118828;22;20611;-58
2022/01/22 08:56:09;;;;;;;0.70;0.70;;;3.20;99.90;;;;;;5060518;27;20636;-59
2022/01/22 08:58:50;;;;;;;0.90;0.90;;;3.20;99.90;;;;;;5082549;28;20667;-59
2022/01/22 09:01:31;;;;;;;0.90;0.90;;;3.40;99.90;;;;;;5103799;27;20591;-58
2022/01/22 09:04:10;;;;;;;0.80;0.80;;;3.50;99.90;;;;;;5092327;27;20555;-59
2022/01/22 09:06:50;;;;;;;0.95;0.95;;;3.60;99.90;;;;;;5096387;27;20557;-58
2022/01/22 09:09:29;;;;;;;3.83;0.80;;;3.60;99.90;;;;;;5104266;27;20865;-59
2022/01/22 09:12:11;;;;;;;0.80;0.80;;;3.60;99.90;;;;;;5124190;27;20667;-59
2022/01/22 09:14:51;;;;;;;0.80;0.80;;;3.60;99.90;;;;;;5087820;27;20555;-58
2022/01/22 09:17:31;;;;;;;0.93;0.93;;;3.70;99.90;;;;;;5083741;28;20557;-58
2022/01/22 09:20:14;;;;;;;0.80;0.70;;;3.80;99.90;;;;;;5122874;27;20601;-58
2022/01/22 09:22:53;;;;;;;0.75;0.75;;;3.70;99.90;;;;;;5143564;27;21206;-58
2022/01/22 09:25:34;;;;;;;0.60;0.60;;;3.60;99.90;;;;;;5083140;27;21079;-58
2022/01/22 09:28:14;;;;;;;0.77;0.70;;;3.50;99.90;;;;;;5082104;27;20565;-59
2022/01/22 09:30:54;;;;;;;0.60;0.60;;;3.50;99.90;;;;;;5092411;27;20562;-59
2022/01/22 09:33:33;;;;;;;0.70;0.70;;;3.50;99.90;;;;;;5096686;27;20715;-58
2022/01/22 09:36:12;;;;;;;0.80;0.80;;;3.60;99.90;;;;;;5154920;27;21117;-58
2022/01/22 09:38:53;;;;;;;0.88;0.88;;;3.80;99.90;;;;;;5083455;28;20597;-58
2022/01/22 09:41:32;;;;;;;0.70;0.70;;;4.00;99.90;;;;;;5145160;27;20657;-59
2022/01/22 09:44:12;;;;;;;0.73;0.73;;;4.20;99.90;;;;;;5084972;27;20572;-59
2022/01/22 09:46:53;;;;;;;0.75;0.75;;;4.10;99.90;;;;;;5085022;28;20668;-58
2022/01/22 09:49:33;;;;;;;0.80;0.80;;;4.10;99.90;;;;;;5124851;27;20536;-58
2022/01/22 09:52:13;;;;;;;0.50;0.50;;;4.00;99.90;;;;;;5084409;28;20672;-58
2022/01/22 09:54:53;;;;;;;0.80;0.80;;;4.00;99.90;;;;;;5084424;28;20684;-58
2022/01/22 09:57:35;;;;;;;0.63;0.63;;;3.90;99.90;;;;;;5104503;27;20538;-58
2022/01/22 10:00:18;;;;;;;0.68;0.68;;;3.90;99.90;;;;;;5083936;27;20560;-59
2022/01/22 10:02:59;;;;;;;0.80;0.80;;;3.80;99.90;;;;;;5083690;28;20625;-58
2022/01/22 10:05:40;;;;;;;0.70;0.70;;;3.70;99.90;;;;;;5099319;27;20549;-59
2022/01/22 10:08:25;;;;;;;0.50;0.50;;;3.80;99.90;;;;;;5139433;27;20689;-58
2022/01/22 10:11:16;;;;;;;0.98;0.98;;;3.90;99.90;;;;;;5068368;27;20607;-58
2022/01/22 10:13:58;;;;;;;0.75;0.75;;;3.90;99.90;;;;;;5075075;28;20694;-59
2022/01/22 10:16:39;;;;;;;0.60;0.60;;;4.00;99.90;;;;;;5124689;27;20593;-58
2022/01/22 10:19:20;;;;;;;0.70;0.70;;;4.30;99.90;;;;;;5124619;27;21021;-58
2022/01/22 10:22:03;;;;;;;1.00;1.00;;;4.50;99.90;;;;;;5076010;27;20586;-58
2022/01/22 10:24:45;;;;;;;1.02;0.77;;;4.60;99.90;;;;;;5068269;28;20657;-58
2022/01/22 10:27:30;;;;;;;0.60;0.60;;;4.80;99.90;;;;;;5103515;27;20623;-58
2022/01/22 10:30:13;;;;;;;0.65;0.65;;;4.90;99.90;;;;;;5103933;27;20670;-58
2022/01/22 10:32:59;;;;;;;0.85;0.85;;;5.00;99.90;;;;;;5124857;27;20544;-58
2022/01/22 10:35:38;;;;;;;2.70;0.80;;;5.20;99.90;;;;;;5074618;27;21051;-58
2022/01/22 10:38:18;;;;;;;0.80;0.80;;;5.10;99.90;;;;;;5081155;27;21139;-58
2022/01/22 10:40:58;;;;;;;0.70;0.70;;;5.20;99.90;;;;;;5116943;27;20540;-58
2022/01/22 10:43:43;;;;;;;0.60;0.60;;;5.20;99.90;;;;;;5143888;27;20558;-58
2022/01/22 10:46:33;;;;;;;0.60;0.60;;;5.20;99.90;;;;;;5084911;27;20562;-58
2022/01/22 10:49:15;;;;;;;0.70;0.70;;;5.10;99.90;;;;;;5084053;28;20680;-58
2022/01/22 10:51:57;;;;;;;0.70;0.70;;;5.10;99.90;;;;;;5083872;27;21075;-58
2022/01/22 10:54:38;;;;;;;0.68;0.68;;;5.10;99.90;;;;;;5084849;27;20577;-58
2022/01/22 10:57:20;;;;;;;0.52;0.52;;;5.20;99.90;;;;;;5083666;28;20652;-58
2022/01/22 11:00:00;;;;;;;0.50;0.50;;;5.20;99.90;;;;;;5145765;27;21185;-58
2022/01/22 11:02:40;;;;;;;0.50;0.50;;;5.20;99.90;;;;;;5083253;28;20550;-58
2022/01/22 11:05:38;;;;;;;0.60;0.50;;;5.30;99.90;;;;;;5084236;27;20680;-58
2022/01/22 11:08:18;;;;;;;0.43;0.43;;;5.30;99.90;;;;;;5104309;27;20619;-58
2022/01/22 11:10:58;;;;;;;0.40;0.40;;;5.50;99.90;;;;;;5145860;27;20646;-58
2022/01/22 11:13:37;;;;;;;0.50;0.50;;;5.70;99.90;;;;;;5084562;28;20547;-58
2022/01/22 11:16:19;;;;;;;0.40;0.40;;;5.80;99.90;;;;;;5085183;28;20667;-58
2022/01/22 11:19:00;;;;;;;0.75;0.50;;;5.70;99.90;;;;;;5145687;27;20539;-58
2022/01/22 11:21:43;;;;;;;0.40;0.40;;;5.90;99.90;;;;;;5145859;27;20546;-58
2022/01/22 11:24:23;;;;;;;0.55;0.55;;;6.00;99.90;;;;;;5084501;27;20555;-58
2022/01/22 11:27:05;;;;;;;0.85;0.60;;;6.00;99.90;;;;;;5124958;27;21057;-58
2022/01/22 11:29:50;;;;;;;0.47;0.47;;;6.10;99.90;;;;;;5167084;27;20537;-58
2022/01/22 11:32:35;;;;;;;0.82;0.80;;;6.20;99.90;;;;;;5084511;27;20566;-58
2022/01/22 11:35:19;;;;;;;0.52;0.52;;;6.40;99.90;;;;;;5084283;27;20983;-58
2022/01/22 11:38:05;;;;;;;0.50;0.50;;;6.50;99.90;;;;;;5104258;27;20649;-58
2022/01/22 11:41:03;;;;;;;0.60;0.60;;;6.50;99.90;;;;;;5125474;27;20533;-58
2022/01/22 11:44:05;;;;;;;0.60;0.60;;;6.30;99.90;;;;;;5146418;27;21082;-58
2022/01/22 11:46:56;;;;;;;0.60;0.60;;;6.10;99.90;;;;;;5085293;28;21041;-58
2022/01/22 11:49:36;;;;;;;0.60;0.50;;;6.10;99.90;;;;;;5084459;28;20656;-58
2022/01/22 11:52:27;;;;;;;0.70;0.70;;;6.10;99.90;;;;;;5080371;28;20660;-58
2022/01/22 11:55:11;;;;;;;0.70;0.70;;;5.90;99.90;;;;;;5093494;27;20581;-58
2022/01/22 11:58:06;;;;;;;1.20;0.70;;;5.70;99.90;;;;;;5097282;27;20558;-58
2022/01/22 12:00:45;;;;;;;1.77;0.75;;;5.50;99.90;;;;;;5121236;27;20556;-59
2022/01/22 12:03:25;;;;;;;0.65;0.65;;;5.40;99.90;;;;;;5103362;27;20693;-58
2022/01/22 12:06:11;;;;;;;0.63;0.63;;;5.30;99.90;;;;;;5106327;27;21014;-58
2022/01/22 12:09:12;;;;;;;0.55;0.52;;;5.20;99.90;;;;;;5083036;28;20663;-59
2022/01/22 12:14:57;;;;;;;0.70;0.70;;;4.90;99.90;;;;;;5065093;28;20692;-58
2022/01/22 12:18:10;;;;;;;0.95;0.95;;;5.10;99.90;;;;;;5058300;28;20713;-59
2022/01/22 12:23:54;;;;;;;1.20;1.10;;;5.10;99.90;;;;;;5154876;27;21060;-58
2022/01/22 12:26:49;;;;;;;1.67;1.58;;;5.00;99.90;;;;;;5083569;28;20680;-59
2022/01/22 12:29:40;;;;;;;0.93;0.93;;;5.10;99.90;;;;;;5082246;28;20960;-59
2022/01/22 12:32:33;;;;;;;1.00;1.00;;;5.10;99.90;;;;;;5082706;27;21983;-59
2022/01/22 12:35:16;;;;;;;1.17;1.10;;;5.10;99.90;;;;;;5083270;27;21058;-59
2022/01/22 12:38:16;;;;;;;1.45;1.35;;;5.00;99.90;;;;;;5103755;27;20658;-58
2022/01/22 12:41:13;;;;;;;1.25;1.25;;;4.90;99.90;;;;;;5083307;28;20700;-59
2022/01/22 12:44:01;;;;;;;1.20;1.20;;;4.80;99.90;;;;;;5109876;27;20547;-59
2022/01/22 12:46:41;;;;;;;1.83;1.27;;;4.70;99.90;;;;;;5104508;27;20673;-59
2022/01/22 12:49:22;;;;;;;1.10;1.10;;;4.60;99.90;;;;;;5083189;28;20672;-59
2022/01/22 12:52:05;;;;;;;1.80;1.60;;;4.50;99.90;;;;;;5103398;27;20534;-59
2022/01/22 12:54:48;;;;;;;1.20;1.20;;;4.40;99.90;;;;;;5088869;27;20571;-59
2022/01/22 12:57:29;;;;;;;1.42;1.33;;;4.40;99.90;;;;;;5143140;27;21021;-59
2022/01/22 13:00:14;;;;;;;1.45;1.35;;;4.50;99.90;;;;;;5104261;27;20546;-59
2022/01/22 13:02:55;;;;;;;1.20;1.10;;;4.40;99.90;;;;;;5083484;27;20544;-59
2022/01/22 13:05:34;;;;;;;1.48;1.38;;;4.40;99.90;;;;;;5123575;27;20543;-59
2022/01/22 13:08:14;;;;;;;1.27;1.27;;;4.40;99.90;;;;;;5099475;27;21142;-59
2022/01/22 13:10:55;;;;;;;1.23;1.23;;;4.30;99.90;;;;;;5083977;28;20679;-59
2022/01/22 13:13:36;;;;;;;1.45;1.35;;;4.30;99.90;;;;;;5076630;28;21028;-59
2022/01/22 13:16:17;;;;;;;1.48;1.38;;;4.30;99.90;;;;;;5149340;27;20535;-59
2022/01/22 13:18:58;;;;;;;1.58;1.48;;;4.30;99.90;;;;;;5083230;27;20561;-59
2022/01/22 13:21:37;;;;;;;1.55;1.45;;;4.30;99.90;;;;;;5083288;28;20668;-59
2022/01/22 13:24:22;;;;;;;1.73;1.63;;;4.30;99.90;;;;;;5103854;27;20566;-59
2022/01/22 13:27:07;;;;;;;1.60;1.50;;;4.30;99.90;;;;;;5081738;27;21107;-59
2022/01/22 13:29:53;;;;;;;1.25;1.15;;;4.30;99.90;;;;;;5121177;27;20559;-59
2022/01/22 13:32:50;;;;;;;1.50;1.40;;;4.30;99.90;;;;;;5104339;27;20542;-59
2022/01/22 13:35:45;;;;;;;1.27;1.15;;;4.30;99.90;;;;;;5103878;27;20888;-59
2022/01/22 13:38:42;;;;;;;1.50;1.40;;;4.30;99.90;;;;;;5086078;28;20681;-59
2022/01/22 13:50:17;;;;;;;2.13;0.90;;;4.30;99.90;;;;;;5135964;27;20554;-59
2022/01/22 13:52:56;;;;;;;1.02;1.00;;;4.30;99.90;;;;;;5119948;27;20703;-59
2022/01/22 13:55:35;;;;;;;0.98;0.98;;;4.30;99.90;;;;;;5094393;27;20747;-59
2022/01/22 13:58:21;;;;;;;1.00;1.00;;;4.20;99.90;;;;;;5080718;27;20578;-59
2022/01/22 14:01:05;;;;;;;1.20;1.20;;;4.10;99.90;;;;;;5100173;27;20553;-59
2022/01/22 14:03:45;;;;;;;0.95;0.95;;;4.10;99.90;;;;;;5075624;28;20575;-59
2022/01/22 14:06:32;;;;;;;0.80;0.80;;;4.00;99.90;;;;;;5103370;27;20690;-59
2022/01/22 14:09:18;;;;;;;0.70;0.70;;;4.00;99.90;;;;;;5081570;27;20584;-59
2022/01/22 14:12:12;;;;;;;0.57;0.57;;;4.00;99.90;;;;;;5140319;27;20691;-59
2022/01/22 14:15:03;;;;;;;0.60;0.60;;;4.00;99.90;;;;;;5127893;27;20601;-59
2022/01/22 14:18:08;;;;;;;0.95;0.80;;;4.00;99.90;;;;;;5079936;27;20599;-59
2022/01/22 14:20:52;;;;;;;0.77;0.77;;;3.90;99.90;;;;;;5077342;28;20650;-59
2022/01/22 14:23:34;;;;;;;0.60;0.60;;;3.80;99.90;;;;;;5065695;27;20980;-59
2022/01/22 14:26:16;;;;;;;0.80;0.80;;;3.70;99.90;;;;;;5140842;27;21025;-59
2022/01/22 14:28:57;;;;;;;0.75;0.75;;;3.70;99.90;;;;;;5081718;27;20555;-60
2022/01/22 14:31:49;;;;;;;0.75;0.70;;;3.60;99.90;;;;;;5123143;27;21022;-59
2022/01/22 14:34:34;;;;;;;1.05;1.05;;;3.60;99.90;;;;;;5107833;27;21237;-59
2022/01/22 14:37:27;;;;;;;1.10;1.10;;;3.60;99.90;;;;;;5140449;27;20680;-59
2022/01/22 14:46:11;;;;;;;0.73;0.73;;;3.40;99.90;;;;;;5088171;27;20656;-59
2022/01/22 14:48:52;;;;;;;0.70;0.70;;;3.40;99.90;;;;;;5103195;27;20745;-59
2022/01/22 14:51:32;;;;;;;0.73;0.63;;;3.40;99.90;;;;;;5083162;27;20986;-60
2022/01/22 14:54:12;;;;;;;0.80;0.80;;;3.40;99.90;;;;;;5094105;27;20559;-60
2022/01/22 14:56:52;;;;;;;1.15;0.73;;;3.40;99.90;;;;;;5089831;27;20693;-60
2022/01/22 14:59:31;;;;;;;0.60;0.60;;;3.30;99.90;;;;;;5122639;27;20673;-60
2022/01/22 15:02:12;;;;;;;1.02;1.02;;;3.30;99.90;;;;;;5126039;27;21220;-60
2022/01/22 15:04:51;;;;;;;1.10;1.10;;;3.30;99.90;;;;;;5127842;27;20587;-60
2022/01/22 15:07:31;;;;;;;0.80;0.80;;;3.30;99.90;;;;;;5143564;27;20665;-60
2022/01/22 15:10:12;;;;;;;0.60;0.60;;;3.30;99.90;;;;;;5085122;27;20587;-60
2022/01/22 15:12:53;;;;;;;2.92;1.10;;;3.20;99.90;;;;;;5082869;27;21128;-60
2022/01/22 15:15:35;;;;;;;0.73;0.73;;;3.20;99.90;;;;;;5069773;27;20560;-60
2022/01/22 15:18:27;;;;;;;0.60;0.60;;;3.20;99.90;;;;;;5081684;28;20869;-60
2022/01/22 15:21:06;;;;;;;0.60;0.60;;;3.20;99.90;;;;;;5082084;27;21076;-60
2022/01/22 15:23:46;;;;;;;0.70;0.70;;;3.20;99.90;;;;;;5094449;27;20547;-60
2022/01/22 15:26:26;;;;;;;0.60;0.60;;;3.10;99.90;;;;;;5121894;27;20699;-60
2022/01/22 15:29:08;;;;;;;0.70;0.70;;;3.10;99.90;;;;;;5106014;27;20563;-60
2022/01/22 15:32:05;;;;;;;1.45;1.08;;;3.10;99.90;;;;;;5106186;27;20673;-60